createdAt,value
2017-10-23T00:01:03.063Z,101105.88
2017-10-23T00:03:29.341Z,101106.73
2017-10-23T00:05:55.871Z,101112.81
2017-10-23T00:08:22.052Z,101102.80
2017-10-23T00:10:48.234Z,101108.03
2017-10-23T00:13:15.205Z,101107.19
2017-10-23T00:15:41.407Z,101105.85
2017-10-23T00:18:07.605Z,101107.55
2017-10-23T00:20:33.849Z,101102.73
2017-10-23T00:23:00.133Z,101108.48
2017-10-23T00:25:26.317Z,101104.56
2017-10-23T00:27:52.645Z,101102.41
2017-10-23T00:30:18.835Z,101104.13
2017-10-23T00:32:45.013Z,101098.01
2017-10-23T00:35:11.329Z,101098.45
2017-10-23T00:37:37.522Z,101098.86
2017-10-23T00:40:03.728Z,101101.89
2017-10-23T00:42:29.989Z,101096.20
2017-10-23T00:44:56.166Z,101108.01
2017-10-23T00:47:22.345Z,101097.92
2017-10-23T00:49:49.240Z,101097.05
2017-10-23T00:52:15.488Z,101105.80
2017-10-23T00:54:41.700Z,101103.23
2017-10-23T00:57:08.477Z,101105.84
2017-10-23T00:59:34.743Z,101101.06
2017-10-23T01:02:00.978Z,101102.02
2017-10-23T01:04:27.234Z,101102.43
2017-10-23T01:06:53.760Z,101097.13
2017-10-23T01:09:19.932Z,101098.44
2017-10-23T01:11:46.266Z,101092.78
2017-10-23T01:14:12.465Z,101097.14
2017-10-23T01:16:38.980Z,101099.73
2017-10-23T01:19:05.253Z,101095.36
2017-10-23T01:21:31.514Z,101089.70
2017-10-23T01:23:57.738Z,101090.98
2017-10-23T01:26:24.053Z,101083.58
2017-10-23T01:28:50.244Z,101079.67
2017-10-23T01:31:16.452Z,101073.52
2017-10-23T01:33:42.907Z,101073.53
2017-10-23T01:36:09.571Z,101070.46
2017-10-23T01:38:35.778Z,101073.09
2017-10-23T01:41:01.990Z,101071.31
2017-10-23T01:43:28.313Z,101070.02
2017-10-23T01:45:54.497Z,101071.77
2017-10-23T01:48:20.979Z,101072.22
2017-10-23T01:50:47.812Z,101063.03
2017-10-23T01:53:14.000Z,101063.91
2017-10-23T01:55:40.178Z,101061.72
2017-10-23T01:58:06.700Z,101058.22
2017-10-23T02:00:33.237Z,101059.95
2017-10-23T02:02:59.452Z,101063.44
2017-10-23T02:05:26.049Z,101057.78
2017-10-23T02:07:52.229Z,101063.94
2017-10-23T02:10:18.416Z,101063.03
2017-10-23T02:12:44.668Z,101067.40
2017-10-23T02:15:10.853Z,101071.75
2017-10-23T02:17:37.042Z,101067.84
2017-10-23T02:20:04.390Z,101066.09
2017-10-23T02:22:30.590Z,101066.53
2017-10-23T02:24:56.772Z,101070.00
2017-10-23T02:27:23.088Z,101069.12
2017-10-23T02:29:49.257Z,101068.22
2017-10-23T02:32:15.737Z,101069.97
2017-10-23T02:34:41.949Z,101068.69
2017-10-23T02:37:08.151Z,101072.19
2017-10-23T02:39:34.321Z,101063.03
2017-10-23T02:42:00.577Z,101070.03
2017-10-23T02:44:26.753Z,101066.09
2017-10-23T02:46:52.960Z,101066.97
2017-10-23T02:49:19.584Z,101066.99
2017-10-23T02:51:45.770Z,101070.48
2017-10-23T02:54:11.956Z,101070.49
2017-10-23T02:56:38.565Z,101066.09
2017-10-23T02:59:04.751Z,101065.66
2017-10-23T03:01:30.943Z,101066.50
2017-10-23T03:03:57.418Z,101060.87
2017-10-23T03:06:23.638Z,101065.68
2017-10-23T03:08:49.906Z,101067.87
2017-10-23T03:11:16.411Z,101063.47
2017-10-23T03:13:42.949Z,101066.56
2017-10-23T03:16:09.572Z,101065.66
2017-10-23T03:18:35.772Z,101062.12
2017-10-23T03:21:01.978Z,101065.62
2017-10-23T03:23:28.576Z,101065.62
2017-10-23T03:25:54.767Z,101068.27
2017-10-23T03:28:27.383Z,101064.77
2017-10-23T03:30:53.640Z,101065.22
2017-10-23T03:33:19.848Z,101067.81
2017-10-23T03:35:46.042Z,101070.46
2017-10-23T03:38:12.365Z,101076.61
2017-10-23T03:40:38.576Z,101078.30
2017-10-23T03:43:04.773Z,101075.25
2017-10-23T03:45:31.325Z,101073.09
2017-10-23T03:47:57.529Z,101079.20
2017-10-23T03:50:23.712Z,101070.08
2017-10-23T03:52:49.953Z,101067.43
2017-10-23T03:55:16.153Z,101068.30
2017-10-23T03:57:42.349Z,101073.95
2017-10-23T04:00:08.629Z,101073.09
2017-10-23T04:02:34.836Z,101078.77
2017-10-23T04:05:01.084Z,101074.40
2017-10-23T04:07:27.393Z,101077.48
2017-10-23T04:09:53.977Z,101078.83
2017-10-23T04:12:20.226Z,101087.13
2017-10-23T04:14:46.546Z,101087.13
2017-10-23T04:17:13.072Z,101086.23
2017-10-23T04:19:39.315Z,101085.76
2017-10-23T04:22:05.653Z,101090.22
2017-10-23T04:24:31.896Z,101089.75
2017-10-23T04:26:58.393Z,101094.55
2017-10-23T04:29:24.738Z,101093.71
2017-10-23T04:31:50.920Z,101097.16
2017-10-23T04:34:17.127Z,101093.66
2017-10-23T04:36:43.371Z,101100.70
2017-10-23T04:39:09.557Z,101107.19
2017-10-23T04:41:35.774Z,101098.47
2017-10-23T04:44:02.297Z,101099.37
2017-10-23T04:46:28.501Z,101103.80
2017-10-23T04:48:54.704Z,101100.70
2017-10-23T04:51:21.597Z,101101.17
2017-10-23T04:53:47.845Z,101095.95
2017-10-23T04:56:14.037Z,101096.39
2017-10-23T04:58:40.300Z,101092.45
2017-10-23T05:01:06.916Z,101089.83
2017-10-23T05:03:33.087Z,101091.58
2017-10-23T05:05:59.685Z,101087.19
2017-10-23T05:08:25.877Z,101094.16
2017-10-23T05:10:52.101Z,101087.13
2017-10-23T05:13:18.365Z,101083.60
2017-10-23T05:15:44.527Z,101083.60
2017-10-23T05:18:10.712Z,101086.23
2017-10-23T05:20:37.506Z,101087.08
2017-10-23T05:23:03.997Z,101087.95
2017-10-23T05:25:30.534Z,101088.38
2017-10-23T05:27:56.868Z,101093.63
2017-10-23T05:30:23.113Z,101087.87
2017-10-23T05:32:49.341Z,101086.53
2017-10-23T05:35:15.957Z,101093.06
2017-10-23T05:37:42.157Z,101093.03
2017-10-23T05:40:08.352Z,101093.94
2017-10-23T05:42:34.606Z,101099.19
2017-10-23T05:45:00.839Z,101096.53
2017-10-23T05:47:27.301Z,101096.12
2017-10-23T05:49:53.541Z,101100.50
2017-10-23T05:52:20.065Z,101104.00
2017-10-23T05:54:46.296Z,101106.62
2017-10-23T05:57:12.622Z,101108.80
2017-10-23T05:59:38.859Z,101110.14
2017-10-23T06:02:05.067Z,101112.33
2017-10-23T06:04:31.325Z,101110.58
2017-10-23T06:06:57.730Z,101108.88
2017-10-23T06:09:23.969Z,101112.35
2017-10-23T06:11:50.315Z,101118.91
2017-10-23T06:14:16.554Z,101122.00
2017-10-23T06:16:42.766Z,101111.99
2017-10-23T06:19:09.083Z,101120.30
2017-10-23T06:21:35.325Z,101118.14
2017-10-23T06:24:01.571Z,101120.79
2017-10-23T06:26:28.190Z,101116.03
2017-10-23T06:28:54.436Z,101118.66
2017-10-23T06:31:20.902Z,101115.59
2017-10-23T06:33:47.333Z,101123.00
2017-10-23T06:36:13.581Z,101122.56
2017-10-23T06:38:39.900Z,101126.55
2017-10-23T06:41:06.159Z,101120.87
2017-10-23T06:43:32.362Z,101121.72
2017-10-23T06:45:58.826Z,101122.62
2017-10-23T06:48:25.389Z,101123.05
2017-10-23T06:50:51.611Z,101125.26
2017-10-23T06:53:17.849Z,101126.58
2017-10-23T06:55:44.865Z,101126.55
2017-10-23T06:58:11.130Z,101131.80
2017-10-23T07:00:37.447Z,101127.42
2017-10-23T07:03:04.130Z,101123.05
2017-10-23T07:05:30.584Z,101128.35
2017-10-23T07:07:56.911Z,101133.59
2017-10-23T07:10:23.211Z,101132.26
2017-10-23T07:12:49.506Z,101140.16
2017-10-23T07:15:15.716Z,101133.59
2017-10-23T07:17:41.978Z,101139.25
2017-10-23T07:20:08.191Z,101138.81
2017-10-23T07:22:34.376Z,101144.95
2017-10-23T07:25:00.666Z,101141.08
2017-10-23T07:27:26.862Z,101144.16
2017-10-23T07:29:53.060Z,101139.76
2017-10-23T07:32:19.406Z,101140.22
2017-10-23T07:34:45.602Z,101147.65
2017-10-23T07:37:11.805Z,101139.80
2017-10-23T07:39:38.710Z,101146.39
2017-10-23T07:42:04.914Z,101142.02
2017-10-23T07:44:31.126Z,101142.87
2017-10-23T07:46:57.468Z,101143.72
2017-10-23T07:49:23.669Z,101148.50
2017-10-23T07:51:49.853Z,101143.23
2017-10-23T07:54:16.350Z,101146.24
2017-10-23T07:56:42.551Z,101141.89
2017-10-23T07:59:08.746Z,101154.98
2017-10-23T08:01:35.003Z,101150.16
2017-10-23T08:04:01.202Z,101152.73
2017-10-23T08:06:27.735Z,101154.47
2017-10-23T08:08:54.139Z,101151.01
2017-10-23T08:11:20.332Z,101155.41
2017-10-23T08:13:46.517Z,101157.14
2017-10-23T08:16:12.776Z,101151.95
2017-10-23T08:18:38.963Z,101153.20
2017-10-23T08:21:05.155Z,101154.53
2017-10-23T08:23:31.791Z,101157.61
2017-10-23T08:25:58.226Z,101161.98
2017-10-23T08:28:24.564Z,101165.02
2017-10-23T08:30:51.196Z,101159.77
2017-10-23T08:33:17.398Z,101159.80
2017-10-23T08:35:43.905Z,101165.04
2017-10-23T08:38:10.233Z,101162.84
2017-10-23T08:40:36.834Z,101164.58
2017-10-23T08:43:03.032Z,101164.61
2017-10-23T08:45:29.357Z,101164.61
2017-10-23T08:47:55.554Z,101166.39
2017-10-23T08:50:21.770Z,101168.15
2017-10-23T08:52:48.372Z,101167.30
2017-10-23T08:55:14.854Z,101158.56
2017-10-23T08:57:41.065Z,101162.91
2017-10-23T09:00:07.408Z,101163.80
2017-10-23T09:02:33.631Z,101163.77
2017-10-23T09:05:00.077Z,101168.15
2017-10-23T09:07:27.216Z,101165.97
2017-10-23T09:12:19.564Z,101166.38
2017-10-23T09:14:46.010Z,101156.73
2017-10-23T09:17:12.364Z,101161.05
2017-10-23T09:19:38.548Z,101168.05
2017-10-23T09:22:04.778Z,101173.69
2017-10-23T09:24:31.638Z,101173.64
2017-10-23T09:26:57.824Z,101174.05
2017-10-23T09:29:24.302Z,101172.25
2017-10-23T09:31:50.737Z,101176.14
2017-10-23T09:34:16.926Z,101183.91
2017-10-23T09:36:43.156Z,101183.03
2017-10-23T09:39:09.412Z,101192.66
2017-10-23T09:41:35.958Z,101190.88
2017-10-23T09:44:02.151Z,101196.98
2017-10-23T09:46:28.492Z,101195.69
2017-10-23T09:48:54.701Z,101205.75
2017-10-23T09:51:21.175Z,101203.95
2017-10-23T09:53:47.517Z,101201.25
2017-10-23T09:56:14.037Z,101204.70
2017-10-23T09:58:40.241Z,101210.00
2017-10-23T10:01:06.678Z,101204.80
2017-10-23T10:03:32.862Z,101212.66
2017-10-23T10:05:59.038Z,101211.73
2017-10-23T10:08:25.694Z,101217.83
2017-10-23T10:10:51.891Z,101223.51
2017-10-23T10:13:18.271Z,101228.32
2017-10-23T10:15:44.600Z,101228.31
2017-10-23T10:18:11.018Z,101228.32
2017-10-23T10:20:37.211Z,101226.98
2017-10-23T10:23:03.831Z,101229.63
2017-10-23T10:25:30.288Z,101231.86
2017-10-23T10:27:56.495Z,101239.32
2017-10-23T10:30:22.782Z,101237.16
2017-10-23T10:32:49.000Z,101242.88
2017-10-23T10:35:15.319Z,101239.81
2017-10-23T10:37:41.575Z,101242.92
2017-10-23T10:40:07.779Z,101246.00
2017-10-23T10:42:34.325Z,101252.99
2017-10-23T10:45:01.005Z,101252.54
2017-10-23T10:47:27.207Z,101256.05
2017-10-23T10:49:53.404Z,101250.80
2017-10-23T10:52:19.752Z,101253.83
2017-10-23T10:54:45.971Z,101254.27
2017-10-23T10:57:12.406Z,101259.97
2017-10-23T10:59:39.358Z,101265.69
2017-10-23T11:02:05.561Z,101259.54
2017-10-23T11:04:31.763Z,101261.23
2017-10-23T11:06:58.080Z,101252.06
2017-10-23T11:09:24.265Z,101252.47
2017-10-23T11:11:50.457Z,101253.32
2017-10-23T11:14:17.069Z,101255.89
2017-10-23T11:16:43.273Z,101251.96
2017-10-23T11:19:09.471Z,101258.06
2017-10-23T11:21:35.738Z,101253.66
2017-10-23T11:24:01.933Z,101250.55
2017-10-23T11:26:28.143Z,101252.77
2017-10-23T11:28:54.489Z,101250.57
2017-10-23T11:31:20.912Z,101258.50
2017-10-23T11:33:47.111Z,101262.44
2017-10-23T11:36:13.357Z,101263.72
2017-10-23T11:38:39.535Z,101256.26
2017-10-23T11:41:05.769Z,101257.11
2017-10-23T11:43:31.970Z,101262.31
2017-10-23T11:45:58.167Z,101255.72
2017-10-23T11:48:24.410Z,101259.66
2017-10-23T11:50:50.607Z,101256.14
2017-10-23T11:53:17.087Z,101253.49
2017-10-23T11:55:43.769Z,101264.89
2017-10-23T11:58:09.969Z,101257.91
2017-10-23T12:00:36.182Z,101260.11
2017-10-23T12:03:02.716Z,101264.02
2017-10-23T12:05:28.907Z,101270.09
2017-10-23T12:07:55.090Z,101274.91
2017-10-23T12:10:21.602Z,101275.31
2017-10-23T12:12:47.906Z,101286.70
2017-10-23T12:15:14.106Z,101288.95
2017-10-23T12:17:40.798Z,101286.73
2017-10-23T12:20:07.334Z,101296.77
2017-10-23T12:22:33.872Z,101296.80
2017-10-23T12:25:00.374Z,101297.23
2017-10-23T12:27:26.581Z,101297.67
2017-10-23T12:29:53.033Z,101300.30
2017-10-23T12:32:19.295Z,101301.64
2017-10-23T12:34:45.532Z,101307.78
2017-10-23T12:37:11.720Z,101316.99
2017-10-23T12:39:38.746Z,101312.61
2017-10-23T12:42:04.928Z,101317.89
2017-10-23T12:44:31.121Z,101319.64
2017-10-23T12:46:57.398Z,101321.36
2017-10-23T12:49:23.610Z,101318.30
2017-10-23T12:51:49.801Z,101319.15
2017-10-23T12:54:16.142Z,101320.47
2017-10-23T12:56:42.360Z,101321.78
2017-10-23T12:59:08.549Z,101328.78
2017-10-23T13:01:35.158Z,101325.28
2017-10-23T13:04:01.361Z,101329.22
2017-10-23T13:06:27.548Z,101339.72
2017-10-23T13:08:53.791Z,101348.45
2017-10-23T13:11:19.987Z,101345.39
2017-10-23T13:13:46.278Z,101349.80
2017-10-23T13:16:12.543Z,101345.86
2017-10-23T13:18:38.747Z,101347.98
2017-10-23T13:21:04.943Z,101344.02
2017-10-23T13:23:31.282Z,101347.50
2017-10-23T13:25:57.488Z,101350.99
2017-10-23T13:28:23.912Z,101360.62
2017-10-23T13:30:50.250Z,101358.89
2017-10-23T13:33:16.447Z,101368.09
2017-10-23T13:35:42.643Z,101375.58
2017-10-23T13:38:09.070Z,101371.67
2017-10-23T13:40:35.289Z,101377.36
2017-10-23T13:43:01.470Z,101388.27
2017-10-23T13:45:27.761Z,101400.52
2017-10-23T13:47:53.950Z,101398.78
2017-10-23T13:50:20.156Z,101409.25
2017-10-23T13:52:46.429Z,101417.13
2017-10-23T13:55:12.604Z,101416.72
2017-10-23T13:57:39.225Z,101420.19
2017-10-23T14:00:05.763Z,101425.45
2017-10-23T14:02:31.971Z,101436.82
2017-10-23T14:04:58.221Z,101444.70
2017-10-23T14:07:24.561Z,101435.97
2017-10-23T14:09:50.757Z,101440.36
2017-10-23T14:12:16.967Z,101445.66
2017-10-23T14:14:43.589Z,101454.41
2017-10-23T14:17:09.786Z,101463.16
2017-10-23T14:19:36.069Z,101469.74
2017-10-23T14:22:02.384Z,101471.47
2017-10-23T14:24:28.688Z,101477.19
2017-10-23T14:26:54.937Z,101478.47
2017-10-23T14:29:21.534Z,101475.84
2017-10-23T14:31:47.774Z,101482.88
2017-10-23T14:34:14.032Z,101483.28
2017-10-23T14:36:40.458Z,101488.09
2017-10-23T14:39:06.760Z,101485.93
2017-10-23T14:41:33.277Z,101488.97
2017-10-23T14:43:59.609Z,101492.47
2017-10-23T14:46:25.818Z,101500.80
2017-10-23T14:48:52.373Z,101499.52
2017-10-23T14:51:18.643Z,101504.78
2017-10-23T14:53:44.946Z,101505.19
2017-10-23T14:56:11.166Z,101514.84
2017-10-23T14:58:37.434Z,101518.37
2017-10-23T15:01:03.918Z,101528.86
2017-10-23T15:03:30.138Z,101531.89
2017-10-23T15:05:56.399Z,101524.91
2017-10-23T15:08:22.626Z,101528.87
2017-10-23T15:10:48.842Z,101537.59
2017-10-23T15:13:15.110Z,101539.37
2017-10-23T15:15:41.381Z,101544.59
2017-10-23T15:18:07.573Z,101551.17
2017-10-23T15:20:34.205Z,101549.85
2017-10-23T15:23:00.390Z,101549.85
2017-10-23T15:25:26.612Z,101548.94
2017-10-23T15:27:53.032Z,101559.04
2017-10-23T15:30:19.230Z,101561.68
2017-10-23T15:32:45.425Z,101566.92
2017-10-23T15:35:11.678Z,101571.30
2017-10-23T15:37:37.891Z,101580.05
2017-10-23T15:40:04.096Z,101585.33
2017-10-23T15:42:30.411Z,101591.00
2017-10-23T15:44:56.613Z,101589.28
2017-10-23T15:47:22.799Z,101589.69
2017-10-23T15:49:49.121Z,101594.53
2017-10-23T15:52:15.309Z,101596.72
2017-10-23T15:54:41.760Z,101608.51
2017-10-23T15:57:08.140Z,101611.14
2017-10-23T15:59:34.353Z,101615.08
2017-10-23T16:02:00.849Z,101626.00
2017-10-23T16:04:27.384Z,101620.77
2017-10-23T16:06:53.588Z,101626.02
2017-10-23T16:09:19.777Z,101619.84
2017-10-23T16:11:46.026Z,101627.29
2017-10-23T16:14:12.229Z,101630.36
2017-10-23T16:16:38.461Z,101632.52
2017-10-23T16:19:04.787Z,101632.53
2017-10-23T16:21:31.001Z,101638.62
2017-10-23T16:23:57.212Z,101637.77
2017-10-23T16:26:24.056Z,101646.53
2017-10-23T16:28:50.596Z,101653.98
2017-10-23T16:31:16.809Z,101653.55
2017-10-23T16:33:43.415Z,101657.50
2017-10-23T16:36:09.612Z,101658.79
2017-10-23T16:38:35.829Z,101655.28
2017-10-23T16:41:02.495Z,101664.04
2017-10-23T16:43:28.692Z,101657.91
2017-10-23T16:45:54.897Z,101664.45
2017-10-23T16:48:21.159Z,101666.67
2017-10-23T16:50:47.357Z,101668.41
2017-10-23T16:53:13.560Z,101671.03
2017-10-23T16:55:39.820Z,101677.17
2017-10-23T16:58:06.020Z,101674.98
2017-10-23T17:00:32.258Z,101682.86
2017-10-23T17:02:58.495Z,101689.42
2017-10-23T17:05:24.687Z,101701.66
2017-10-23T17:07:50.873Z,101702.97
2017-10-23T17:10:17.214Z,101705.17
2017-10-23T17:12:43.419Z,101713.04
2017-10-23T17:15:09.603Z,101720.91
2017-10-23T17:17:36.038Z,101719.62
2017-10-23T17:20:02.255Z,101728.78
2017-10-23T17:22:28.523Z,101737.99
2017-10-23T17:24:54.852Z,101738.42
2017-10-23T17:27:21.033Z,101746.27
2017-10-23T17:29:47.213Z,101749.34
2017-10-23T17:32:13.544Z,101748.91
2017-10-23T17:34:40.078Z,101750.67
2017-10-23T17:37:06.259Z,101757.22
2017-10-23T17:39:32.841Z,101760.72
2017-10-23T17:41:59.026Z,101765.96
2017-10-23T17:44:25.506Z,101758.09
2017-10-23T17:46:51.856Z,101764.66
2017-10-23T17:49:18.067Z,101769.47
2017-10-23T17:51:44.266Z,101776.45
2017-10-23T17:54:11.136Z,101776.48
2017-10-23T17:56:37.331Z,101790.02
2017-10-23T17:59:03.757Z,101789.17
2017-10-23T18:01:30.032Z,101786.95
2017-10-23T18:03:56.219Z,101796.58
2017-10-23T18:06:22.404Z,101798.80
2017-10-23T18:08:48.965Z,101804.05
2017-10-23T18:11:15.174Z,101818.91
2017-10-23T18:13:41.380Z,101822.40
2017-10-23T18:16:07.902Z,101821.11
2017-10-23T18:18:34.370Z,101823.71
2017-10-23T18:21:00.568Z,101831.61
2017-10-23T18:23:26.772Z,101826.79
2017-10-23T18:25:53.059Z,101842.09
2017-10-23T18:28:19.255Z,101847.36
2017-10-23T18:30:45.685Z,101842.98
2017-10-23T18:33:11.951Z,101846.08
2017-10-23T18:35:38.154Z,101847.38
2017-10-23T18:38:04.347Z,101851.30
2017-10-23T18:40:30.642Z,101850.87
2017-10-23T18:42:56.840Z,101856.55
2017-10-23T18:45:23.035Z,101857.41
2017-10-23T18:47:49.310Z,101857.42
2017-10-23T18:50:15.498Z,101856.10
2017-10-23T18:52:41.718Z,101853.50
2017-10-23T18:55:08.067Z,101846.48
2017-10-23T19:00:25.141Z,101852.60
2017-10-23T19:02:51.335Z,101854.34
2017-10-23T19:05:17.537Z,101856.92
2017-10-23T19:07:43.786Z,101861.73
2017-10-23T19:10:10.029Z,101862.62
2017-10-23T19:12:36.545Z,101864.36
2017-10-23T19:15:02.857Z,101863.05
2017-10-23T19:17:29.302Z,101869.12
2017-10-23T19:19:55.522Z,101873.89
2017-10-23T19:22:22.116Z,101870.37
2017-10-23T19:24:48.563Z,101871.27
2017-10-23T19:27:15.001Z,101866.48
2017-10-23T19:29:41.257Z,101866.03
2017-10-23T19:32:07.471Z,101865.16
2017-10-23T19:34:33.670Z,101872.59
2017-10-23T19:37:00.241Z,101880.02
2017-10-23T19:39:26.437Z,101888.33
2017-10-23T19:41:52.763Z,101891.81
2017-10-23T19:44:19.009Z,101889.16
2017-10-23T19:46:45.464Z,101886.11
2017-10-23T19:49:11.646Z,101884.80
2017-10-23T19:51:37.863Z,101893.53
2017-10-23T19:54:04.147Z,101898.36
2017-10-23T19:56:30.338Z,101900.53
2017-10-23T19:58:56.670Z,101913.63
2017-10-23T20:01:22.870Z,101912.77
2017-10-23T20:03:49.158Z,101921.95
2017-10-23T20:06:15.513Z,101928.05
2017-10-23T20:08:41.757Z,101936.36
2017-10-23T20:11:07.954Z,101933.29
2017-10-23T20:13:34.280Z,101945.09
2017-10-23T20:16:00.505Z,101952.11
2017-10-23T20:18:26.713Z,101955.58
2017-10-23T20:20:53.064Z,101953.44
2017-10-23T20:23:19.509Z,101955.16
2017-10-23T20:25:45.749Z,101959.53
2017-10-23T20:28:12.101Z,101958.66
2017-10-23T20:30:38.296Z,101959.95
2017-10-23T20:33:04.505Z,101963.46
2017-10-23T20:35:30.751Z,101964.77
2017-10-23T20:37:56.949Z,101959.97
2017-10-23T20:40:23.390Z,101957.33
2017-10-23T20:42:50.009Z,101957.78
2017-10-23T20:45:16.209Z,101963.49
2017-10-23T20:47:42.398Z,101967.45
2017-10-23T20:50:08.666Z,101969.65
2017-10-23T20:52:34.867Z,101960.04
2017-10-23T20:55:01.059Z,101968.33
2017-10-23T20:57:27.780Z,101964.83
2017-10-23T20:59:53.975Z,101968.30
2017-10-23T21:02:20.167Z,101970.03
2017-10-23T21:04:46.743Z,101973.95
2017-10-23T21:07:12.947Z,101969.55
2017-10-23T21:09:39.403Z,101973.48
2017-10-23T21:12:05.643Z,101980.52
2017-10-23T21:14:31.845Z,101984.92
2017-10-23T21:16:58.057Z,101985.35
2017-10-23T21:19:24.626Z,101993.22
2017-10-23T21:21:51.233Z,101995.00
2017-10-23T21:24:17.533Z,101999.78
2017-10-23T21:26:44.212Z,101998.92
2017-10-23T21:29:10.411Z,102003.29
2017-10-23T21:31:36.849Z,102011.18
2017-10-23T21:34:03.170Z,102008.52
2017-10-23T21:36:29.375Z,102009.80
2017-10-23T21:38:55.593Z,102010.18
2017-10-23T21:41:21.954Z,102011.52
2017-10-23T21:43:48.173Z,102013.28
2017-10-23T21:46:14.711Z,102015.46
2017-10-23T21:48:41.218Z,102018.08
2017-10-23T21:51:07.392Z,102018.97
2017-10-23T21:53:33.612Z,102010.64
2017-10-23T21:55:59.947Z,102013.27
2017-10-23T21:58:26.151Z,102015.03
2017-10-23T22:00:52.673Z,102020.73
2017-10-23T22:03:18.905Z,102020.73
2017-10-23T22:05:45.099Z,102016.80
2017-10-23T22:08:11.288Z,102021.16
2017-10-23T22:10:37.657Z,102015.48
2017-10-23T22:13:04.110Z,102007.20
2017-10-23T22:15:30.312Z,102011.61
2017-10-23T22:17:56.845Z,102007.23
2017-10-23T22:20:23.052Z,102011.17
2017-10-23T22:22:49.379Z,102022.11
2017-10-23T22:25:15.699Z,102021.66
2017-10-23T22:27:41.905Z,102023.86
2017-10-23T22:30:08.105Z,102029.98
2017-10-23T22:32:34.366Z,102037.91
2017-10-23T22:35:00.574Z,102026.53
2017-10-23T22:37:27.008Z,102021.27
2017-10-23T22:39:53.252Z,102026.08
2017-10-23T22:42:19.550Z,102024.31
2017-10-23T22:44:45.758Z,102023.02
2017-10-23T22:47:11.980Z,102025.22
2017-10-23T22:49:38.352Z,102027.39
2017-10-23T22:52:04.553Z,102019.09
2017-10-23T22:54:30.749Z,102022.16
2017-10-23T22:56:56.999Z,102025.67
2017-10-23T22:59:23.196Z,102035.27
2017-10-23T23:01:49.670Z,102037.91
2017-10-23T23:04:16.375Z,102043.59
2017-10-23T23:06:42.616Z,102045.77
2017-10-23T23:09:08.859Z,102052.77
2017-10-23T23:11:35.195Z,102048.86
2017-10-23T23:14:01.392Z,102047.54
2017-10-23T23:16:27.586Z,102054.52
2017-10-23T23:18:54.096Z,102060.17
2017-10-23T23:21:20.536Z,102069.82
2017-10-23T23:23:46.937Z,102067.60
2017-10-23T23:26:13.621Z,102072.88
2017-10-23T23:28:39.840Z,102073.31
2017-10-23T23:31:06.046Z,102075.06
2017-10-23T23:33:32.379Z,102082.06
2017-10-23T23:35:58.572Z,102079.44
2017-10-23T23:38:24.782Z,102080.31
2017-10-23T23:40:51.266Z,102081.20
2017-10-23T23:43:17.456Z,102079.86
2017-10-23T23:45:43.637Z,102084.69
2017-10-23T23:48:09.971Z,102080.31
2017-10-23T23:50:36.484Z,102076.84
2017-10-23T23:53:02.700Z,102075.06
2017-10-23T23:55:28.961Z,102077.28
2017-10-23T23:57:55.187Z,102077.70
